createdAt,value
2018-12-16T00:00:59.725Z,82.19
2018-12-16T00:06:04.329Z,82.25
2018-12-16T00:11:06.867Z,82.18
2018-12-16T00:16:09.050Z,82.22
2018-12-16T00:26:20.448Z,82.24
2018-12-16T00:31:22.633Z,82.53
2018-12-16T00:36:25.214Z,82.45
2018-12-16T00:41:27.377Z,82.44
2018-12-16T00:46:29.678Z,82.12
2018-12-16T00:51:31.837Z,81.71
2018-12-16T00:56:34.012Z,81.93
2018-12-16T01:01:36.759Z,81.88
2018-12-16T01:06:39.298Z,81.67
2018-12-16T01:11:42.121Z,81.45
2018-12-16T01:16:44.311Z,81.82
2018-12-16T01:21:46.354Z,81.62
2018-12-16T01:26:53.453Z,81.47
2018-12-16T01:31:55.560Z,81.60
2018-12-16T01:36:57.898Z,81.13
2018-12-16T01:42:00.077Z,80.90
2018-12-16T01:47:02.546Z,81.25
2018-12-16T01:52:04.706Z,81.17
2018-12-16T01:57:07.043Z,81.56
2018-12-16T02:02:09.221Z,80.86
2018-12-16T02:07:11.348Z,81.40
2018-12-16T02:12:13.650Z,81.38
2018-12-16T02:17:15.830Z,81.02
2018-12-16T02:22:18.012Z,80.98
2018-12-16T02:27:20.274Z,81.54
2018-12-16T02:32:22.468Z,81.23
2018-12-16T02:37:24.658Z,81.32
2018-12-16T02:42:26.850Z,81.62
2018-12-16T02:47:28.911Z,81.04
2018-12-16T02:52:30.982Z,81.09
2018-12-16T02:57:33.157Z,80.86
2018-12-16T03:02:35.453Z,80.95
2018-12-16T03:07:38.444Z,80.69
2018-12-16T03:12:40.543Z,80.56
2018-12-16T03:17:42.811Z,80.89
2018-12-16T03:22:45.683Z,80.79
2018-12-16T03:27:47.792Z,80.92
2018-12-16T03:32:49.973Z,80.85
2018-12-16T03:37:52.029Z,80.87
2018-12-16T03:42:54.346Z,81.25
2018-12-16T03:47:56.527Z,80.66
2018-12-16T03:52:58.576Z,80.60
2018-12-16T03:58:00.786Z,81.08
2018-12-16T04:03:03.070Z,80.72
2018-12-16T04:08:05.534Z,80.88
2018-12-16T04:13:07.741Z,80.71
2018-12-16T04:18:10.020Z,79.96
2018-12-16T04:23:12.307Z,79.20
2018-12-16T04:28:21.613Z,79.44
2018-12-16T04:33:23.694Z,79.69
2018-12-16T04:38:25.903Z,79.57
2018-12-16T04:43:28.021Z,78.87
2018-12-16T04:48:30.083Z,78.68
2018-12-16T04:53:36.919Z,78.35
2018-12-16T04:58:36.479Z,78.38
2018-12-16T05:03:38.582Z,77.53
2018-12-16T05:08:40.733Z,76.91
2018-12-16T05:13:43.100Z,76.07
2018-12-16T05:18:45.258Z,76.14
2018-12-16T05:23:47.326Z,75.68
2018-12-16T05:28:49.497Z,73.53
2018-12-16T05:33:51.654Z,73.13
2018-12-16T05:38:53.783Z,73.37
2018-12-16T05:43:56.049Z,73.39
2018-12-16T05:48:58.106Z,73.11
2018-12-16T05:54:00.166Z,73.93
2018-12-16T05:59:02.353Z,74.08
2018-12-16T06:04:04.750Z,73.72
2018-12-16T06:09:07.093Z,72.46
2018-12-16T06:14:10.256Z,71.22
2018-12-16T06:19:12.450Z,68.71
2018-12-16T06:24:14.497Z,66.75
2018-12-16T06:29:16.803Z,65.78
2018-12-16T06:34:18.905Z,66.40
2018-12-16T06:39:21.958Z,66.46
2018-12-16T06:44:23.994Z,67.39
2018-12-16T06:49:26.065Z,67.97
2018-12-16T06:54:28.225Z,67.34
2018-12-16T06:59:30.281Z,67.03
2018-12-16T07:04:32.386Z,66.49
2018-12-16T07:09:34.717Z,66.14
2018-12-16T07:14:37.030Z,66.19
2018-12-16T07:19:39.596Z,65.25
2018-12-16T07:24:41.649Z,65.31
2018-12-16T07:29:43.687Z,65.49
2018-12-16T07:34:45.742Z,65.95
2018-12-16T07:39:48.030Z,66.34
2018-12-16T07:44:50.098Z,66.41
2018-12-16T07:49:52.495Z,66.33
2018-12-16T07:54:54.606Z,65.98
2018-12-16T07:59:56.828Z,66.59
2018-12-16T08:04:59.054Z,67.64
2018-12-16T08:10:01.447Z,68.25
2018-12-16T08:15:04.322Z,68.01
2018-12-16T08:20:07.739Z,67.95
2018-12-16T08:25:10.025Z,67.22
2018-12-16T08:30:12.309Z,67.15
2018-12-16T08:35:14.397Z,67.57
2018-12-16T08:40:16.671Z,66.70
2018-12-16T08:45:18.919Z,67.07
2018-12-16T08:50:21.177Z,66.40
2018-12-16T08:55:23.457Z,65.85
2018-12-16T09:00:25.614Z,65.70
2018-12-16T09:05:27.677Z,65.42
2018-12-16T09:10:34.112Z,65.30
2018-12-16T09:15:34.029Z,65.09
2018-12-16T09:20:36.179Z,66.51
2018-12-16T09:25:38.431Z,66.83
2018-12-16T09:30:40.618Z,65.70
2018-12-16T09:35:42.820Z,65.25
2018-12-16T09:40:45.245Z,63.74
2018-12-16T09:45:49.544Z,62.43
2018-12-16T09:50:52.121Z,61.67
2018-12-16T09:55:54.385Z,60.84
2018-12-16T10:00:56.842Z,60.03
2018-12-16T10:05:59.164Z,59.79
2018-12-16T10:11:01.856Z,59.47
2018-12-16T10:16:04.256Z,57.92
2018-12-16T10:21:06.916Z,56.72
2018-12-16T10:26:09.150Z,57.55
2018-12-16T10:31:11.305Z,55.41
2018-12-16T10:36:13.478Z,57.13
2018-12-16T10:41:15.554Z,57.21
2018-12-16T10:46:17.777Z,58.79
2018-12-16T10:51:19.961Z,59.51
2018-12-16T10:56:22.146Z,59.31
2018-12-16T11:01:28.672Z,58.43
2018-12-16T11:06:30.958Z,58.58
2018-12-16T11:11:33.264Z,59.09
2018-12-16T11:16:35.581Z,58.75
2018-12-16T11:21:37.922Z,58.73
2018-12-16T11:26:40.946Z,58.75
2018-12-16T11:31:43.142Z,59.72
2018-12-16T11:36:45.413Z,60.03
2018-12-16T11:41:47.635Z,60.15
2018-12-16T11:46:49.854Z,59.38
2018-12-16T11:51:52.123Z,59.09
2018-12-16T11:57:11.395Z,57.68
2018-12-16T12:02:13.605Z,59.77
2018-12-16T12:07:17.770Z,58.96
2018-12-16T12:12:20.149Z,59.36
2018-12-16T12:17:22.307Z,57.82
2018-12-16T12:22:24.594Z,57.78
2018-12-16T12:27:27.052Z,58.61
2018-12-16T12:32:29.354Z,58.06
2018-12-16T12:37:31.840Z,58.86
2018-12-16T12:42:37.074Z,58.98
2018-12-16T12:47:39.245Z,58.21
2018-12-16T12:52:46.497Z,59.02
2018-12-16T12:57:48.729Z,59.34
2018-12-16T13:02:50.993Z,60.23
2018-12-16T13:07:53.086Z,59.91
2018-12-16T13:12:55.526Z,59.79
2018-12-16T13:17:57.813Z,59.96
2018-12-16T13:22:59.859Z,60.09
2018-12-16T13:28:02.162Z,60.12
2018-12-16T13:33:04.359Z,61.03
2018-12-16T13:38:06.614Z,60.50
2018-12-16T13:43:09.731Z,59.64
2018-12-16T13:48:11.882Z,61.90
2018-12-16T13:53:14.872Z,62.60
2018-12-16T13:58:17.438Z,62.20
2018-12-16T14:03:19.809Z,62.16
2018-12-16T14:08:21.990Z,63.21
2018-12-16T14:13:24.415Z,62.97
2018-12-16T14:18:26.468Z,63.20
2018-12-16T14:23:28.553Z,62.67
2018-12-16T14:28:30.594Z,64.95
2018-12-16T14:33:33.145Z,65.22
2018-12-16T14:38:35.434Z,66.41
2018-12-16T14:43:37.618Z,67.09
2018-12-16T14:48:39.687Z,67.66
2018-12-16T14:53:42.045Z,68.42
2018-12-16T14:58:44.261Z,70.05
2018-12-16T15:03:46.446Z,70.62
2018-12-16T15:09:01.716Z,72.53
2018-12-16T15:14:05.277Z,74.92
2018-12-16T15:19:07.453Z,77.77
2018-12-16T15:24:09.729Z,78.69
2018-12-16T15:29:11.817Z,79.60
2018-12-16T15:34:13.984Z,79.68
2018-12-16T15:39:16.054Z,80.16
2018-12-16T15:44:20.133Z,80.74
2018-12-16T15:49:22.221Z,81.32
2018-12-16T15:54:24.362Z,81.81
2018-12-16T15:59:26.630Z,81.98
2018-12-16T16:04:28.833Z,81.91
2018-12-16T16:09:31.003Z,82.02
2018-12-16T16:14:33.071Z,82.49
2018-12-16T16:19:35.381Z,82.49
2018-12-16T16:24:37.421Z,82.02
2018-12-16T16:29:39.726Z,82.13
2018-12-16T16:34:41.922Z,81.83
2018-12-16T16:39:50.862Z,81.52
2018-12-16T16:44:53.027Z,81.73
2018-12-16T16:49:55.089Z,81.96
2018-12-16T16:54:57.366Z,81.58
2018-12-16T16:59:59.544Z,81.23
2018-12-16T17:05:01.779Z,81.17
2018-12-16T17:10:04.991Z,81.79
2018-12-16T17:15:07.414Z,81.85
2018-12-16T17:20:09.733Z,82.50
2018-12-16T17:25:11.786Z,82.99
2018-12-16T17:30:14.046Z,83.06
2018-12-16T17:35:16.098Z,83.11
2018-12-16T17:40:18.189Z,82.48
2018-12-16T17:45:20.973Z,82.65
2018-12-16T17:50:25.154Z,83.66
2018-12-16T17:55:27.701Z,83.55
2018-12-16T18:00:36.796Z,83.53
2018-12-16T18:05:39.097Z,83.01
2018-12-16T18:10:41.322Z,82.97
2018-12-16T18:15:44.033Z,82.62
2018-12-16T18:20:46.557Z,82.01
2018-12-16T18:25:49.389Z,82.54
2018-12-16T18:30:53.379Z,82.48
2018-12-16T18:35:55.969Z,82.39
2018-12-16T18:40:58.546Z,82.70
2018-12-16T18:46:00.908Z,82.56
2018-12-16T18:51:03.629Z,82.27
2018-12-16T18:56:05.978Z,82.34
2018-12-16T19:01:08.099Z,82.41
2018-12-16T19:06:10.138Z,82.23
2018-12-16T19:11:12.343Z,82.40
2018-12-16T19:16:14.405Z,82.56
2018-12-16T19:21:16.581Z,82.16
2018-12-16T19:26:18.775Z,81.88
2018-12-16T19:31:22.903Z,81.95
2018-12-16T19:36:25.058Z,82.43
2018-12-16T19:41:28.110Z,82.33
2018-12-16T19:46:30.203Z,82.42
2018-12-16T19:51:33.127Z,82.28
2018-12-16T19:56:36.161Z,82.55
2018-12-16T20:01:43.330Z,82.48
2018-12-16T20:06:47.188Z,81.94
2018-12-16T20:11:50.052Z,82.33
2018-12-16T20:16:52.946Z,81.52
2018-12-16T20:21:55.138Z,79.57
2018-12-16T20:26:58.273Z,77.97
2018-12-16T20:32:00.906Z,76.96
2018-12-16T20:37:03.933Z,76.10
2018-12-16T20:42:06.034Z,74.80
2018-12-16T20:47:08.889Z,74.31
2018-12-16T20:52:11.217Z,74.27
2018-12-16T20:57:18.834Z,74.69
2018-12-16T21:02:18.027Z,74.78
2018-12-16T21:07:27.317Z,73.78
2018-12-16T21:12:39.006Z,73.82
2018-12-16T21:17:47.474Z,73.49
2018-12-16T21:22:50.717Z,73.90
2018-12-16T21:27:53.466Z,73.58
2018-12-16T21:32:56.681Z,74.25
2018-12-16T21:37:59.948Z,73.68
2018-12-16T21:43:03.430Z,74.60
2018-12-16T21:48:05.647Z,74.12
2018-12-16T21:53:09.122Z,74.19
2018-12-16T21:58:11.194Z,74.07
2018-12-16T22:03:13.337Z,74.81
2018-12-16T22:08:15.437Z,74.64
2018-12-16T22:13:17.649Z,74.69
2018-12-16T22:18:19.933Z,74.48
2018-12-16T22:23:22.089Z,75.62
2018-12-16T22:28:24.171Z,75.55
2018-12-16T22:33:26.213Z,75.49
2018-12-16T22:38:28.270Z,75.51
2018-12-16T22:43:32.373Z,75.66
2018-12-16T22:48:34.714Z,75.36
2018-12-16T22:53:36.892Z,75.11
2018-12-16T22:58:39.101Z,74.80
2018-12-16T23:03:41.280Z,74.26
2018-12-16T23:08:43.553Z,74.69
2018-12-16T23:13:45.898Z,74.87
2018-12-16T23:18:49.511Z,74.87
2018-12-16T23:23:51.657Z,74.99
2018-12-16T23:28:53.950Z,75.41
2018-12-16T23:33:56.098Z,75.09
2018-12-16T23:38:58.281Z,75.16
2018-12-16T23:44:00.438Z,75.19
2018-12-16T23:49:02.732Z,74.84
2018-12-16T23:54:04.773Z,75.06
2018-12-16T23:59:06.938Z,75.31
